sensor_id;sensor_type;location;lat;lon;timestamp;pressure;altitude;pressure_sealevel;temperature;humidity
75585;BME280;64162;53.508;10.476;2022-11-20T00:01:13;100700.50;;;2.09;81.98
75585;BME280;64162;53.508;10.476;2022-11-20T00:03:40;100694.94;;;1.97;82.12
75585;BME280;64162;53.508;10.476;2022-11-20T00:06:10;100693.94;;;2.00;81.66
75585;BME280;64162;53.508;10.476;2022-11-20T00:08:38;100690.31;;;2.04;82.59
75585;BME280;64162;53.508;10.476;2022-11-20T00:11:06;100692.84;;;2.06;82.34
75585;BME280;64162;53.508;10.476;2022-11-20T00:13:35;100700.75;;;2.03;81.81
75585;BME280;64162;53.508;10.476;2022-11-20T00:16:04;100703.22;;;2.06;82.19
75585;BME280;64162;53.508;10.476;2022-11-20T00:18:43;100698.75;;;2.09;81.95
75585;BME280;64162;53.508;10.476;2022-11-20T00:21:12;100695.28;;;2.09;82.55
75585;BME280;64162;53.508;10.476;2022-11-20T00:23:39;100696.91;;;2.11;81.77
75585;BME280;64162;53.508;10.476;2022-11-20T00:26:08;100692.75;;;2.07;82.57
75585;BME280;64162;53.508;10.476;2022-11-20T00:28:35;100704.19;;;2.03;81.70
75585;BME280;64162;53.508;10.476;2022-11-20T00:31:04;100703.56;;;1.98;82.80
75585;BME280;64162;53.508;10.476;2022-11-20T00:33:31;100704.28;;;2.02;82.88
75585;BME280;64162;53.508;10.476;2022-11-20T00:36:05;100697.13;;;2.07;82.38
75585;BME280;64162;53.508;10.476;2022-11-20T00:38:33;100699.66;;;2.08;83.09
75585;BME280;64162;53.508;10.476;2022-11-20T00:41:01;100702.97;;;2.12;81.91
75585;BME280;64162;53.508;10.476;2022-11-20T00:43:28;100700.22;;;2.15;82.49
75585;BME280;64162;53.508;10.476;2022-11-20T00:46:07;100698.81;;;2.08;82.78
75585;BME280;64162;53.508;10.476;2022-11-20T00:48:34;100687.63;;;2.06;82.01
75585;BME280;64162;53.508;10.476;2022-11-20T00:51:00;100695.28;;;2.09;81.90
75585;BME280;64162;53.508;10.476;2022-11-20T00:53:27;100698.28;;;1.99;82.72
75585;BME280;64162;53.508;10.476;2022-11-20T00:55:58;100694.44;;;2.08;82.03
75585;BME280;64162;53.508;10.476;2022-11-20T00:58:29;100688.47;;;2.06;82.12
75585;BME280;64162;53.508;10.476;2022-11-20T01:01:07;100691.78;;;2.10;82.86
75585;BME280;64162;53.508;10.476;2022-11-20T01:03:36;100691.28;;;2.02;83.13
75585;BME280;64162;53.508;10.476;2022-11-20T01:06:05;100696.13;;;2.09;82.48
75585;BME280;64162;53.508;10.476;2022-11-20T01:08:33;100683.22;;;2.08;82.88
75585;BME280;64162;53.508;10.476;2022-11-20T01:11:06;100682.63;;;2.01;82.34
75585;BME280;64162;53.508;10.476;2022-11-20T01:13:33;100683.81;;;1.94;nan
75585;BME280;64162;53.508;10.476;2022-11-20T01:16:26;100685.31;;;1.79;83.44
75585;BME280;64162;53.508;10.476;2022-11-20T01:18:56;100676.69;;;1.79;82.97
75585;BME280;64162;53.508;10.476;2022-11-20T01:21:29;100676.56;;;1.82;83.59
75585;BME280;64162;53.508;10.476;2022-11-20T01:23:56;100674.81;;;1.82;83.42
75585;BME280;64162;53.508;10.476;2022-11-20T01:26:26;100680.84;;;1.83;83.16
75585;BME280;64162;53.508;10.476;2022-11-20T01:28:54;100672.22;;;1.82;83.64
75585;BME280;64162;53.508;10.476;2022-11-20T01:31:23;100670.84;;;1.74;84.24
75585;BME280;64162;53.508;10.476;2022-11-20T01:33:52;100675.72;;;1.81;83.26
75585;BME280;64162;53.508;10.476;2022-11-20T01:36:20;100668.69;;;1.83;84.56
75585;BME280;64162;53.508;10.476;2022-11-20T01:38:47;100673.75;;;1.86;83.93
75585;BME280;64162;53.508;10.476;2022-11-20T01:41:14;100672.22;;;1.82;84.47
75585;BME280;64162;53.508;10.476;2022-11-20T01:44:02;100658.25;;;1.85;84.25
75585;BME280;64162;53.508;10.476;2022-11-20T01:46:31;100650.19;;;1.91;84.52
75585;BME280;64162;53.508;10.476;2022-11-20T01:49:04;100657.13;;;1.90;83.90
75585;BME280;64162;53.508;10.476;2022-11-20T01:51:44;100654.41;;;1.93;84.44
75585;BME280;64162;53.508;10.476;2022-11-20T01:54:17;100653.41;;;1.96;84.39
75585;BME280;64162;53.508;10.476;2022-11-20T01:56:46;100648.13;;;1.79;84.74
75585;BME280;64162;53.508;10.476;2022-11-20T01:59:15;100649.47;;;1.87;83.18
75585;BME280;64162;53.508;10.476;2022-11-20T02:01:44;100647.00;;;1.84;84.60
75585;BME280;64162;53.508;10.476;2022-11-20T02:04:11;100645.84;;;1.91;84.29
75585;BME280;64162;53.508;10.476;2022-11-20T02:06:45;100649.13;;;1.95;84.02
75585;BME280;64162;53.508;10.476;2022-11-20T02:09:12;100642.31;;;1.92;84.34
75585;BME280;64162;53.508;10.476;2022-11-20T02:11:40;100644.72;;;1.97;84.34
75585;BME280;64162;53.508;10.476;2022-11-20T02:14:07;100643.88;;;1.96;84.06
75585;BME280;64162;53.508;10.476;2022-11-20T02:16:40;100634.31;;;1.97;83.64
75585;BME280;64162;53.508;10.476;2022-11-20T02:19:16;100628.00;;;2.03;84.39
75585;BME280;64162;53.508;10.476;2022-11-20T02:24:33;100632.09;;;2.08;84.09
75585;BME280;64162;53.508;10.476;2022-11-20T02:27:07;100629.50;;;2.08;83.88
75585;BME280;64162;53.508;10.476;2022-11-20T02:29:42;100627.88;;;2.06;84.08
75585;BME280;64162;53.508;10.476;2022-11-20T02:32:30;100625.47;;;2.01;84.63
75585;BME280;64162;53.508;10.476;2022-11-20T02:34:57;100625.41;;;2.03;83.87
75585;BME280;64162;53.508;10.476;2022-11-20T02:37:30;100623.09;;;1.96;84.12
75585;BME280;64162;53.508;10.476;2022-11-20T02:39:58;100615.78;;;2.05;84.50
75585;BME280;64162;53.508;10.476;2022-11-20T02:42:25;100616.84;;;2.01;83.46
75585;BME280;64162;53.508;10.476;2022-11-20T02:44:51;100615.72;;;2.06;83.73
75585;BME280;64162;53.508;10.476;2022-11-20T02:47:18;100612.41;;;2.03;84.52
75585;BME280;64162;53.508;10.476;2022-11-20T02:49:44;100614.94;;;2.04;83.33
75585;BME280;64162;53.508;10.476;2022-11-20T02:52:11;100609.97;;;1.99;83.60
75585;BME280;64162;53.508;10.476;2022-11-20T02:54:37;100611.78;;;1.97;83.66
75585;BME280;64162;53.508;10.476;2022-11-20T02:57:04;100605.78;;;1.77;83.50
75585;BME280;64162;53.508;10.476;2022-11-20T02:59:30;100610.72;;;1.83;84.23
75585;BME280;64162;53.508;10.476;2022-11-20T03:01:57;100602.22;;;1.79;83.65
75585;BME280;64162;53.508;10.476;2022-11-20T03:04:23;100599.56;;;1.81;84.08
75585;BME280;64162;53.508;10.476;2022-11-20T03:06:50;100604.28;;;1.73;83.91
75585;BME280;64162;53.508;10.476;2022-11-20T03:09:16;100600.25;;;1.65;84.79
75585;BME280;64162;53.508;10.476;2022-11-20T03:11:43;100603.50;;;1.71;83.97
75585;BME280;64162;53.508;10.476;2022-11-20T03:14:09;100595.72;;;1.71;84.37
75585;BME280;64162;53.508;10.476;2022-11-20T03:16:36;100600.91;;;1.71;84.39
75585;BME280;64162;53.508;10.476;2022-11-20T03:19:02;100600.19;;;1.67;84.75
75585;BME280;64162;53.508;10.476;2022-11-20T03:21:28;100605.31;;;1.69;85.28
75585;BME280;64162;53.508;10.476;2022-11-20T03:23:55;100608.88;;;1.66;84.99
75585;BME280;64162;53.508;10.476;2022-11-20T03:26:24;100601.94;;;1.67;85.00
75585;BME280;64162;53.508;10.476;2022-11-20T03:28:56;100599.47;;;1.63;85.21
75585;BME280;64162;53.508;10.476;2022-11-20T03:31:26;100606.22;;;1.68;84.66
75585;BME280;64162;53.508;10.476;2022-11-20T03:33:53;100600.06;;;1.70;84.97
75585;BME280;64162;53.508;10.476;2022-11-20T03:36:20;100593.03;;;1.72;84.80
75585;BME280;64162;53.508;10.476;2022-11-20T03:38:47;100599.22;;;1.70;84.89
75585;BME280;64162;53.508;10.476;2022-11-20T03:41:16;100596.63;;;1.70;85.01
75585;BME280;64162;53.508;10.476;2022-11-20T03:43:48;100599.69;;;1.78;84.83
75585;BME280;64162;53.508;10.476;2022-11-20T03:46:15;100588.38;;;1.79;85.36
75585;BME280;64162;53.508;10.476;2022-11-20T03:48:41;100582.28;;;1.61;85.48
75585;BME280;64162;53.508;10.476;2022-11-20T03:51:17;100582.56;;;1.74;85.69
75585;BME280;64162;53.508;10.476;2022-11-20T03:53:46;100580.72;;;1.57;85.05
75585;BME280;64162;53.508;10.476;2022-11-20T03:56:13;100571.69;;;1.65;84.89
75585;BME280;64162;53.508;10.476;2022-11-20T03:58:40;100567.75;;;1.57;85.00
75585;BME280;64162;53.508;10.476;2022-11-20T04:01:13;100578.66;;;1.65;84.89
75585;BME280;64162;53.508;10.476;2022-11-20T04:03:41;100581.25;;;1.65;84.99
75585;BME280;64162;53.508;10.476;2022-11-20T04:06:16;100569.81;;;1.69;84.29
75585;BME280;64162;53.508;10.476;2022-11-20T04:08:43;100567.41;;;1.64;85.36
75585;BME280;64162;53.508;10.476;2022-11-20T04:11:13;100575.91;;;1.68;84.75
75585;BME280;64162;53.508;10.476;2022-11-20T04:13:40;100581.81;;;1.72;85.08
75585;BME280;64162;53.508;10.476;2022-11-20T04:16:08;100568.31;;;1.63;85.26
75585;BME280;64162;53.508;10.476;2022-11-20T04:18:35;100574.44;;;1.62;84.82
75585;BME280;64162;53.508;10.476;2022-11-20T04:21:03;100573.00;;;1.74;85.27
75585;BME280;64162;53.508;10.476;2022-11-20T04:23:30;100563.56;;;1.73;85.42
75585;BME280;64162;53.508;10.476;2022-11-20T04:26:05;100570.41;;;1.55;85.54
75585;BME280;64162;53.508;10.476;2022-11-20T04:28:32;100566.44;;;1.67;85.33
75585;BME280;64162;53.508;10.476;2022-11-20T04:31:10;100557.38;;;1.57;85.34
75585;BME280;64162;53.508;10.476;2022-11-20T04:33:37;100567.28;;;1.68;85.28
75585;BME280;64162;53.508;10.476;2022-11-20T04:36:10;100565.94;;;1.59;84.75
75585;BME280;64162;53.508;10.476;2022-11-20T04:38:39;100562.22;;;1.64;85.70
75585;BME280;64162;53.508;10.476;2022-11-20T04:41:08;100558.84;;;1.62;85.29
75585;BME280;64162;53.508;10.476;2022-11-20T04:43:36;100570.91;;;1.63;85.15
75585;BME280;64162;53.508;10.476;2022-11-20T04:46:02;100562.56;;;1.57;84.97
75585;BME280;64162;53.508;10.476;2022-11-20T04:48:29;100560.81;;;1.57;85.27
75585;BME280;64162;53.508;10.476;2022-11-20T04:50:56;100568.53;;;1.59;84.83
75585;BME280;64162;53.508;10.476;2022-11-20T04:53:23;100558.22;;;1.57;85.30
75585;BME280;64162;53.508;10.476;2022-11-20T04:55:50;100565.78;;;1.62;85.55
75585;BME280;64162;53.508;10.476;2022-11-20T04:58:16;100552.03;;;1.60;84.75
75585;BME280;64162;53.508;10.476;2022-11-20T05:00:43;100558.47;;;1.51;85.18
75585;BME280;64162;53.508;10.476;2022-11-20T05:03:09;100553.72;;;1.61;84.80
75585;BME280;64162;53.508;10.476;2022-11-20T05:05:36;100551.47;;;1.53;85.16
75585;BME280;64162;53.508;10.476;2022-11-20T05:08:02;100545.78;;;1.64;84.98
75585;BME280;64162;53.508;10.476;2022-11-20T05:10:29;100542.50;;;1.60;85.37
75585;BME280;64162;53.508;10.476;2022-11-20T05:12:56;100547.63;;;1.62;85.30
75585;BME280;64162;53.508;10.476;2022-11-20T05:15:23;100538.22;;;1.59;84.85
75585;BME280;64162;53.508;10.476;2022-11-20T05:17:50;100540.94;;;1.56;85.53
75585;BME280;64162;53.508;10.476;2022-11-20T05:20:17;100542.13;;;1.49;85.43
75585;BME280;64162;53.508;10.476;2022-11-20T05:22:44;100544.19;;;1.61;85.48
75585;BME280;64162;53.508;10.476;2022-11-20T05:25:11;100542.63;;;1.57;84.65
75585;BME280;64162;53.508;10.476;2022-11-20T05:27:38;100543.75;;;1.52;85.23
75585;BME280;64162;53.508;10.476;2022-11-20T05:30:05;100532.09;;;1.60;85.67
75585;BME280;64162;53.508;10.476;2022-11-20T05:32:32;100534.06;;;1.55;85.08
75585;BME280;64162;53.508;10.476;2022-11-20T05:35:01;100532.59;;;1.50;85.68
75585;BME280;64162;53.508;10.476;2022-11-20T05:37:28;100534.19;;;1.52;85.33
75585;BME280;64162;53.508;10.476;2022-11-20T05:39:55;100530.63;;;1.55;85.22
75585;BME280;64162;53.508;10.476;2022-11-20T05:42:22;100531.41;;;1.57;84.63
75585;BME280;64162;53.508;10.476;2022-11-20T05:45:02;100523.03;;;1.50;85.66
75585;BME280;64162;53.508;10.476;2022-11-20T05:47:32;100515.97;;;1.54;85.69
75585;BME280;64162;53.508;10.476;2022-11-20T05:49:59;100514.97;;;1.56;85.43
75585;BME280;64162;53.508;10.476;2022-11-20T05:52:28;100510.06;;;1.50;85.35
75585;BME280;64162;53.508;10.476;2022-11-20T05:54:56;100504.66;;;1.55;84.98
75585;BME280;64162;53.508;10.476;2022-11-20T05:57:22;100509.72;;;1.58;85.85
75585;BME280;64162;53.508;10.476;2022-11-20T05:59:49;100512.03;;;1.45;85.14
75585;BME280;64162;53.508;10.476;2022-11-20T06:02:15;100506.69;;;1.48;85.46
75585;BME280;64162;53.508;10.476;2022-11-20T06:04:41;100499.69;;;1.50;85.08
75585;BME280;64162;53.508;10.476;2022-11-20T06:07:08;100510.69;;;1.55;85.45
75585;BME280;64162;53.508;10.476;2022-11-20T06:09:34;100509.78;;;1.56;85.33
75585;BME280;64162;53.508;10.476;2022-11-20T06:12:01;100508.09;;;1.55;85.81
75585;BME280;64162;53.508;10.476;2022-11-20T06:14:27;100511.63;;;1.54;85.65
75585;BME280;64162;53.508;10.476;2022-11-20T06:16:54;100509.09;;;1.53;84.90
75585;BME280;64162;53.508;10.476;2022-11-20T06:19:21;100504.81;;;1.52;85.91
75585;BME280;64162;53.508;10.476;2022-11-20T06:21:48;100500.66;;;1.48;85.58
75585;BME280;64162;53.508;10.476;2022-11-20T06:24:16;100508.59;;;1.45;85.31
75585;BME280;64162;53.508;10.476;2022-11-20T06:26:43;100509.28;;;1.48;85.47
75585;BME280;64162;53.508;10.476;2022-11-20T06:29:10;100509.50;;;1.44;85.57
75585;BME280;64162;53.508;10.476;2022-11-20T06:31:37;100511.19;;;1.45;85.82
75585;BME280;64162;53.508;10.476;2022-11-20T06:34:04;100516.56;;;1.40;85.57
75585;BME280;64162;53.508;10.476;2022-11-20T06:36:33;100507.81;;;1.43;85.83
75585;BME280;64162;53.508;10.476;2022-11-20T06:39:00;100510.06;;;1.50;85.36
75585;BME280;64162;53.508;10.476;2022-11-20T06:41:27;100505.84;;;1.48;85.32
75585;BME280;64162;53.508;10.476;2022-11-20T06:43:54;100508.31;;;1.51;84.99
75585;BME280;64162;53.508;10.476;2022-11-20T06:46:21;100503.13;;;1.51;85.40
75585;BME280;64162;53.508;10.476;2022-11-20T06:48:48;100515.06;;;1.55;84.81
75585;BME280;64162;53.508;10.476;2022-11-20T06:51:15;100509.34;;;1.47;84.95
75585;BME280;64162;53.508;10.476;2022-11-20T06:53:42;100505.66;;;1.52;84.82
75585;BME280;64162;53.508;10.476;2022-11-20T06:56:08;100499.63;;;1.52;84.81
75585;BME280;64162;53.508;10.476;2022-11-20T06:58:35;100508.19;;;1.54;84.58
75585;BME280;64162;53.508;10.476;2022-11-20T07:01:09;100501.28;;;1.53;85.13
75585;BME280;64162;53.508;10.476;2022-11-20T07:03:36;100501.22;;;1.54;85.03
75585;BME280;64162;53.508;10.476;2022-11-20T07:06:03;100498.50;;;1.57;85.08
75585;BME280;64162;53.508;10.476;2022-11-20T07:08:30;100503.81;;;1.54;85.71
75585;BME280;64162;53.508;10.476;2022-11-20T07:10:58;100511.53;;;1.56;85.88
75585;BME280;64162;53.508;10.476;2022-11-20T07:13:25;100507.84;;;1.61;85.09
75585;BME280;64162;53.508;10.476;2022-11-20T07:15:52;100514.56;;;1.65;85.23
75585;BME280;64162;53.508;10.476;2022-11-20T07:18:18;100514.22;;;1.73;85.54
75585;BME280;64162;53.508;10.476;2022-11-20T07:20:45;100505.28;;;1.79;85.67
75585;BME280;64162;53.508;10.476;2022-11-20T07:23:12;100498.03;;;1.85;85.72
75585;BME280;64162;53.508;10.476;2022-11-20T07:25:38;100510.81;;;1.90;85.04
75585;BME280;64162;53.508;10.476;2022-11-20T07:28:05;100519.25;;;1.95;85.35
75585;BME280;64162;53.508;10.476;2022-11-20T07:30:31;100512.06;;;2.00;84.72
75585;BME280;64162;53.508;10.476;2022-11-20T07:32:58;100514.69;;;2.00;84.89
75585;BME280;64162;53.508;10.476;2022-11-20T07:35:24;100510.31;;;2.01;84.99
75585;BME280;64162;53.508;10.476;2022-11-20T07:37:51;100515.16;;;2.08;84.79
75585;BME280;64162;53.508;10.476;2022-11-20T07:40:18;100509.59;;;2.16;84.66
75585;BME280;64162;53.508;10.476;2022-11-20T07:45:16;100513.59;;;2.23;84.02
75585;BME280;64162;53.508;10.476;2022-11-20T07:47:42;100512.81;;;2.21;84.54
75585;BME280;64162;53.508;10.476;2022-11-20T07:50:09;100505.56;;;2.27;84.44
75585;BME280;64162;53.508;10.476;2022-11-20T07:52:36;100508.88;;;2.31;84.19
75585;BME280;64162;53.508;10.476;2022-11-20T07:55:02;100514.88;;;2.31;84.81
75585;BME280;64162;53.508;10.476;2022-11-20T07:57:29;100510.69;;;2.29;84.07
75585;BME280;64162;53.508;10.476;2022-11-20T07:59:56;100513.13;;;2.32;83.93
75585;BME280;64162;53.508;10.476;2022-11-20T08:02:22;100510.38;;;2.35;83.68
75585;BME280;64162;53.508;10.476;2022-11-20T08:04:49;100512.22;;;2.33;83.81
75585;BME280;64162;53.508;10.476;2022-11-20T08:07:16;100521.94;;;2.29;83.81
75585;BME280;64162;53.508;10.476;2022-11-20T08:09:42;100515.81;;;2.30;83.24
75585;BME280;64162;53.508;10.476;2022-11-20T08:12:17;100516.41;;;2.18;83.88
75585;BME280;64162;53.508;10.476;2022-11-20T08:15:10;100509.84;;;2.28;83.63
75585;BME280;64162;53.508;10.476;2022-11-20T08:17:38;100505.19;;;2.35;83.10
75585;BME280;64162;53.508;10.476;2022-11-20T08:20:05;100508.41;;;2.40;83.63
75585;BME280;64162;53.508;10.476;2022-11-20T08:22:31;100512.94;;;2.54;82.68
75585;BME280;64162;53.508;10.476;2022-11-20T08:24:58;100503.75;;;2.64;82.77
75585;BME280;64162;53.508;10.476;2022-11-20T08:27:24;100510.09;;;2.58;82.84
75585;BME280;64162;53.508;10.476;2022-11-20T08:29:51;100502.69;;;2.51;82.23
75585;BME280;64162;53.508;10.476;2022-11-20T08:32:17;100500.47;;;2.60;81.54
75585;BME280;64162;53.508;10.476;2022-11-20T08:34:44;100495.63;;;2.53;81.53
75585;BME280;64162;53.508;10.476;2022-11-20T08:37:10;100495.13;;;2.63;81.87
75585;BME280;64162;53.508;10.476;2022-11-20T08:39:37;100494.66;;;2.55;82.46
75585;BME280;64162;53.508;10.476;2022-11-20T08:42:07;100490.00;;;2.62;81.80
75585;BME280;64162;53.508;10.476;2022-11-20T08:44:33;100495.19;;;2.62;81.65
75585;BME280;64162;53.508;10.476;2022-11-20T08:47:00;100502.75;;;2.67;81.49
75585;BME280;64162;53.508;10.476;2022-11-20T08:49:27;100498.41;;;2.67;81.12
75585;BME280;64162;53.508;10.476;2022-11-20T08:51:53;100502.00;;;2.64;81.05
75585;BME280;64162;53.508;10.476;2022-11-20T08:54:21;100505.00;;;2.74;82.08
75585;BME280;64162;53.508;10.476;2022-11-20T08:56:48;100504.75;;;2.79;81.76
75585;BME280;64162;53.508;10.476;2022-11-20T08:59:15;100503.44;;;2.70;82.47
75585;BME280;64162;53.508;10.476;2022-11-20T09:01:48;100504.59;;;2.82;81.11
75585;BME280;64162;53.508;10.476;2022-11-20T09:04:15;100504.16;;;2.74;82.31
75585;BME280;64162;53.508;10.476;2022-11-20T09:06:41;100502.44;;;2.90;81.78
75585;BME280;64162;53.508;10.476;2022-11-20T09:09:08;100499.94;;;2.88;81.12
75585;BME280;64162;53.508;10.476;2022-11-20T09:11:34;100500.41;;;3.12;81.74
75585;BME280;64162;53.508;10.476;2022-11-20T09:14:02;100501.09;;;3.16;81.37
75585;BME280;64162;53.508;10.476;2022-11-20T09:16:29;100502.44;;;3.40;80.80
75585;BME280;64162;53.508;10.476;2022-11-20T09:18:55;100507.56;;;3.57;79.98
75585;BME280;64162;53.508;10.476;2022-11-20T09:21:32;100507.63;;;3.56;80.26
75585;BME280;64162;53.508;10.476;2022-11-20T09:23:59;100506.72;;;3.57;79.85
75585;BME280;64162;53.508;10.476;2022-11-20T09:26:25;100506.47;;;3.61;79.95
75585;BME280;64162;53.508;10.476;2022-11-20T09:28:52;100511.94;;;3.73;79.46
75585;BME280;64162;53.508;10.476;2022-11-20T09:31:23;100510.34;;;3.70;79.60
75585;BME280;64162;53.508;10.476;2022-11-20T09:33:50;100501.19;;;3.79;80.14
75585;BME280;64162;53.508;10.476;2022-11-20T09:36:17;100496.16;;;3.76;79.86
75585;BME280;64162;53.508;10.476;2022-11-20T09:38:46;100494.88;;;3.67;79.33
75585;BME280;64162;53.508;10.476;2022-11-20T09:41:47;100497.00;;;3.76;78.43
75585;BME280;64162;53.508;10.476;2022-11-20T09:44:49;100499.25;;;3.67;79.77
75585;BME280;64162;53.508;10.476;2022-11-20T09:50:10;100499.50;;;3.62;79.50
75585;BME280;64162;53.508;10.476;2022-11-20T09:55:24;100498.22;;;3.38;79.71
75585;BME280;64162;53.508;10.476;2022-11-20T09:57:54;100493.81;;;3.22;80.18
75585;BME280;64162;53.508;10.476;2022-11-20T10:00:21;100504.38;;;3.19;80.03
75585;BME280;64162;53.508;10.476;2022-11-20T10:05:24;100504.44;;;3.51;79.84
75585;BME280;64162;53.508;10.476;2022-11-20T10:08:25;100506.28;;;3.49;80.02
75585;BME280;64162;53.508;10.476;2022-11-20T10:11:12;100502.09;;;3.62;80.29
75585;BME280;64162;53.508;10.476;2022-11-20T10:16:34;100492.69;;;3.59;79.88
75585;BME280;64162;53.508;10.476;2022-11-20T10:19:40;100490.78;;;3.94;78.47
75585;BME280;64162;53.508;10.476;2022-11-20T10:24:48;100493.03;;;4.01;77.98
75585;BME280;64162;53.508;10.476;2022-11-20T10:30:01;100481.72;;;4.31;78.67
75585;BME280;64162;53.508;10.476;2022-11-20T10:32:38;100485.81;;;4.36;78.55
75585;BME280;64162;53.508;10.476;2022-11-20T10:43:56;100475.38;;;4.65;77.16
75585;BME280;64162;53.508;10.476;2022-11-20T10:46:33;100487.41;;;4.38;77.44
75585;BME280;64162;53.508;10.476;2022-11-20T10:49:09;100479.53;;;4.24;77.09
75585;BME280;64162;53.508;10.476;2022-11-20T10:51:46;100483.75;;;4.26;78.00
75585;BME280;64162;53.508;10.476;2022-11-20T10:54:22;100483.13;;;4.37;76.97
75585;BME280;64162;53.508;10.476;2022-11-20T11:00:07;100478.03;;;4.20;77.73
75585;BME280;64162;53.508;10.476;2022-11-20T11:02:47;100480.72;;;4.18;78.03
75585;BME280;64162;53.508;10.476;2022-11-20T11:07:54;100483.09;;;4.07;77.96
75585;BME280;64162;53.508;10.476;2022-11-20T11:10:24;100479.16;;;3.84;77.79
75585;BME280;64162;53.508;10.476;2022-11-20T11:12:56;100473.97;;;4.00;77.89
75585;BME280;64162;53.508;10.476;2022-11-20T11:15:51;100475.91;;;3.81;77.15
75585;BME280;64162;53.508;10.476;2022-11-20T11:21:38;100461.84;;;3.68;77.39
75585;BME280;64162;53.508;10.476;2022-11-20T11:24:20;100451.84;;;3.76;77.63
75585;BME280;64162;53.508;10.476;2022-11-20T11:27:11;100454.53;;;3.58;77.81
75585;BME280;64162;53.508;10.476;2022-11-20T11:29:40;100450.81;;;3.47;78.34
75585;BME280;64162;53.508;10.476;2022-11-20T11:32:27;100453.94;;;3.69;77.46
75585;BME280;64162;53.508;10.476;2022-11-20T11:35:01;100447.72;;;3.72;77.88
75585;BME280;64162;53.508;10.476;2022-11-20T11:37:34;100454.47;;;3.76;78.33
75585;BME280;64162;53.508;10.476;2022-11-20T11:40:04;100447.13;;;3.98;78.61
75585;BME280;64162;53.508;10.476;2022-11-20T11:42:54;100441.47;;;4.06;78.96
75585;BME280;64162;53.508;10.476;2022-11-20T11:45:23;100439.16;;;4.01;77.95
75585;BME280;64162;53.508;10.476;2022-11-20T11:47:51;100431.09;;;3.90;78.01
75585;BME280;64162;53.508;10.476;2022-11-20T11:50:24;100449.00;;;3.64;77.03
75585;BME280;64162;53.508;10.476;2022-11-20T11:55:45;100450.69;;;3.65;77.24
75585;BME280;64162;53.508;10.476;2022-11-20T12:00:54;100451.00;;;3.59;79.31
75585;BME280;64162;53.508;10.476;2022-11-20T12:03:28;100452.53;;;3.79;78.49
75585;BME280;64162;53.508;10.476;2022-11-20T12:06:31;100454.88;;;3.84;78.59
75585;BME280;64162;53.508;10.476;2022-11-20T12:09:10;100442.94;;;3.80;79.20
75585;BME280;64162;53.508;10.476;2022-11-20T12:11:49;100443.69;;;3.82;78.19
75585;BME280;64162;53.508;10.476;2022-11-20T12:14:40;100443.38;;;3.72;77.90
75585;BME280;64162;53.508;10.476;2022-11-20T12:17:12;100446.50;;;4.09;76.76
75585;BME280;64162;53.508;10.476;2022-11-20T12:19:40;100448.84;;;4.13;77.74
75585;BME280;64162;53.508;10.476;2022-11-20T12:30:24;100437.06;;;4.52;76.53
75585;BME280;64162;53.508;10.476;2022-11-20T12:36:35;100437.81;;;4.54;74.39
75585;BME280;64162;53.508;10.476;2022-11-20T12:42:09;100423.84;;;4.55;75.02
75585;BME280;64162;53.508;10.476;2022-11-20T12:54:18;100423.84;;;4.55;74.55
75585;BME280;64162;53.508;10.476;2022-11-20T12:57:18;100421.50;;;4.50;75.81
75585;BME280;64162;53.508;10.476;2022-11-20T13:05:24;100421.50;;;4.50;74.35
75585;BME280;64162;53.508;10.476;2022-11-20T13:07:54;100426.09;;;4.61;74.82
75585;BME280;64162;53.508;10.476;2022-11-20T13:13:25;100419.38;;;4.71;76.68
75585;BME280;64162;53.508;10.476;2022-11-20T13:18:30;100417.41;;;4.46;74.85
75585;BME280;64162;53.508;10.476;2022-11-20T13:21:01;100429.41;;;4.49;76.52
75585;BME280;64162;53.508;10.476;2022-11-20T13:23:28;100423.69;;;4.28;73.64
75585;BME280;64162;53.508;10.476;2022-11-20T13:26:13;100411.44;;;4.14;73.50
75585;BME280;64162;53.508;10.476;2022-11-20T13:28:41;100412.00;;;3.89;74.59
75585;BME280;64162;53.508;10.476;2022-11-20T13:31:31;100418.06;;;3.74;75.22
75585;BME280;64162;53.508;10.476;2022-11-20T13:33:59;100411.44;;;3.69;76.05
75585;BME280;64162;53.508;10.476;2022-11-20T13:36:29;100413.63;;;3.76;77.84
75585;BME280;64162;53.508;10.476;2022-11-20T13:38:56;100408.56;;;3.73;76.12
75585;BME280;64162;53.508;10.476;2022-11-20T13:44:27;100417.38;;;3.86;78.04
75585;BME280;64162;53.508;10.476;2022-11-20T13:47:24;100412.09;;;3.88;77.42
75585;BME280;64162;53.508;10.476;2022-11-20T13:50:14;100400.75;;;3.89;79.04
75585;BME280;64162;53.508;10.476;2022-11-20T13:55:54;100397.69;;;3.96;76.00
75585;BME280;64162;53.508;10.476;2022-11-20T13:58:40;100392.06;;;4.04;74.81
75585;BME280;64162;53.508;10.476;2022-11-20T14:01:26;100383.84;;;4.10;76.85
75585;BME280;64162;53.508;10.476;2022-11-20T14:04:06;100384.44;;;4.15;77.25
75585;BME280;64162;53.508;10.476;2022-11-20T14:06:44;100384.25;;;4.18;78.18
75585;BME280;64162;53.508;10.476;2022-11-20T14:09:29;100380.91;;;4.16;76.56
75585;BME280;64162;53.508;10.476;2022-11-20T14:11:58;100376.59;;;4.15;74.43
75585;BME280;64162;53.508;10.476;2022-11-20T14:14:33;100376.28;;;4.06;75.63
75585;BME280;64162;53.508;10.476;2022-11-20T14:17:31;100368.09;;;3.97;76.89
75585;BME280;64162;53.508;10.476;2022-11-20T14:20:06;100362.41;;;3.91;75.89
75585;BME280;64162;53.508;10.476;2022-11-20T14:22:38;100367.28;;;3.81;77.37
75585;BME280;64162;53.508;10.476;2022-11-20T14:27:48;100371.50;;;3.84;76.38
75585;BME280;64162;53.508;10.476;2022-11-20T14:30:23;100366.03;;;3.73;77.79
75585;BME280;64162;53.508;10.476;2022-11-20T14:32:51;100367.72;;;3.74;77.67
75585;BME280;64162;53.508;10.476;2022-11-20T14:35:29;100356.72;;;3.69;77.83
75585;BME280;64162;53.508;10.476;2022-11-20T14:38:16;100371.00;;;3.61;77.03